createdAt,value
2023-02-11T00:03:26.693Z,3.00
2023-02-11T00:08:28.631Z,3.20
2023-02-11T00:13:30.647Z,3.10
2023-02-11T00:18:32.421Z,3.10
2023-02-11T00:23:34.353Z,3.10
2023-02-11T00:28:36.122Z,3.00
2023-02-11T00:33:37.985Z,2.90
2023-02-11T00:38:39.935Z,2.90
2023-02-11T00:43:41.940Z,2.90
2023-02-11T00:48:44.447Z,2.90
2023-02-11T00:53:46.243Z,3.00
2023-02-11T00:58:48.092Z,3.00
2023-02-11T01:03:50.055Z,3.00
2023-02-11T01:08:51.752Z,3.00
2023-02-11T01:13:53.599Z,3.00
2023-02-11T01:18:55.364Z,3.10
2023-02-11T01:23:57.074Z,3.30
2023-02-11T01:29:00.858Z,3.30
2023-02-11T01:34:02.753Z,3.30
2023-02-11T01:39:04.866Z,3.40
2023-02-11T01:44:30.038Z,3.50
2023-02-11T01:49:36.300Z,3.60
2023-02-11T01:55:05.037Z,3.70
2023-02-11T02:00:10.017Z,3.80
2023-02-11T02:05:34.901Z,4.00
2023-02-11T02:10:40.766Z,4.10
2023-02-11T02:15:55.762Z,4.20
2023-02-11T02:21:21.546Z,4.20
2023-02-11T02:26:42.090Z,4.20
2023-02-11T02:31:49.752Z,4.30
2023-02-11T02:37:18.108Z,4.30
2023-02-11T02:42:20.925Z,4.30
2023-02-11T02:47:22.673Z,4.40
2023-02-11T02:53:00.282Z,4.50
2023-02-11T02:58:23.013Z,4.50
2023-02-11T03:04:06.156Z,4.50
2023-02-11T03:09:16.797Z,4.60
2023-02-11T03:14:20.856Z,4.70
2023-02-11T03:19:43.793Z,4.70
2023-02-11T03:24:46.211Z,4.70
2023-02-11T03:30:16.577Z,4.80
2023-02-11T03:35:24.565Z,4.80
2023-02-11T03:40:38.288Z,4.80
2023-02-11T03:45:41.013Z,4.80
2023-02-11T03:50:45.276Z,4.90
2023-02-11T03:55:49.348Z,4.90
2023-02-11T04:00:51.402Z,5.00
2023-02-11T04:05:54.117Z,4.90
2023-02-11T04:10:55.819Z,5.00
2023-02-11T04:15:57.684Z,5.10
2023-02-11T04:20:59.442Z,5.10
2023-02-11T04:26:01.213Z,5.10
2023-02-11T04:31:03.136Z,5.20
2023-02-11T04:36:05.110Z,5.10
2023-02-11T04:41:06.908Z,5.20
2023-02-11T04:46:08.711Z,5.20
2023-02-11T04:51:10.482Z,5.20
2023-02-11T04:56:12.190Z,5.20
2023-02-11T05:01:15.782Z,5.30
2023-02-11T05:06:17.801Z,5.30
2023-02-11T05:11:21.951Z,5.30
2023-02-11T05:16:24.063Z,5.30
2023-02-11T05:21:26.182Z,5.30
2023-02-11T05:26:27.945Z,5.30
2023-02-11T05:31:29.738Z,5.30
2023-02-11T05:36:33.478Z,5.30
2023-02-11T05:41:35.371Z,5.30
2023-02-11T05:46:37.277Z,5.30
2023-02-11T05:51:39.124Z,5.30
2023-02-11T05:56:42.605Z,5.30
2023-02-11T06:01:46.223Z,5.30
2023-02-11T06:06:47.948Z,5.30
2023-02-11T06:11:49.687Z,5.30
2023-02-11T06:16:51.438Z,5.30
2023-02-11T06:21:53.184Z,5.30
2023-02-11T06:26:54.932Z,5.40
2023-02-11T06:31:56.912Z,5.40
2023-02-11T06:36:58.711Z,5.40
2023-02-11T06:42:00.413Z,5.30
2023-02-11T06:47:02.288Z,5.40
2023-02-11T06:52:04.137Z,5.50
2023-02-11T06:57:05.865Z,5.50
2023-02-11T07:02:10.653Z,5.70
2023-02-11T07:07:12.499Z,5.60
2023-02-11T07:12:14.226Z,5.60
2023-02-11T07:17:16.698Z,5.70
2023-02-11T07:22:18.485Z,5.70
2023-02-11T07:27:20.300Z,5.80
2023-02-11T07:32:22.081Z,5.80
2023-02-11T07:37:23.866Z,5.80
2023-02-11T07:42:25.634Z,5.80
2023-02-11T07:47:27.771Z,5.80
2023-02-11T07:52:30.668Z,5.80
2023-02-11T07:57:32.557Z,5.90
2023-02-11T08:02:34.809Z,6.00
2023-02-11T08:07:36.862Z,6.20
2023-02-11T08:12:38.862Z,6.20
2023-02-11T08:17:40.576Z,6.20
2023-02-11T08:22:43.241Z,6.10
2023-02-11T08:27:44.981Z,6.20
2023-02-11T08:32:47.401Z,6.40
2023-02-11T08:37:49.172Z,6.40
2023-02-11T08:42:50.965Z,6.50
2023-02-11T08:47:52.672Z,6.60
2023-02-11T08:52:54.434Z,6.80
2023-02-11T08:57:56.754Z,6.90
2023-02-11T09:02:58.508Z,6.70
2023-02-11T09:08:00.412Z,6.70
2023-02-11T09:13:02.621Z,6.90
2023-02-11T09:18:05.250Z,7.00
2023-02-11T09:23:06.969Z,7.00
2023-02-11T09:28:09.789Z,7.00
2023-02-11T09:33:11.717Z,7.10
2023-02-11T09:38:13.552Z,7.10
2023-02-11T09:43:22.120Z,7.10
2023-02-11T09:48:24.330Z,7.30
2023-02-11T09:53:32.289Z,7.60
2023-02-11T09:58:36.500Z,7.60
2023-02-11T10:03:50.287Z,7.70
2023-02-11T10:09:22.254Z,7.80
2023-02-11T10:15:01.480Z,7.80
2023-02-11T10:20:11.486Z,7.90
2023-02-11T10:25:22.897Z,7.90
2023-02-11T10:30:38.919Z,8.00
2023-02-11T10:35:43.812Z,8.10
2023-02-11T10:40:45.633Z,8.10
2023-02-11T10:45:51.785Z,8.00
2023-02-11T10:51:14.582Z,8.00
2023-02-11T10:56:27.373Z,8.10
2023-02-11T11:01:52.400Z,8.10
2023-02-11T11:06:54.369Z,8.00
2023-02-11T11:11:56.838Z,7.90
2023-02-11T11:16:58.619Z,7.90
2023-02-11T11:22:01.062Z,8.00
2023-02-11T11:27:05.227Z,8.00
2023-02-11T11:32:15.166Z,8.10
2023-02-11T11:37:24.960Z,8.00
2023-02-11T11:42:28.763Z,8.10
2023-02-11T11:47:45.072Z,8.20
2023-02-11T11:52:51.137Z,8.20
2023-02-11T11:57:53.083Z,8.30
2023-02-11T12:03:15.285Z,8.20
2023-02-11T12:08:22.006Z,8.20
2023-02-11T12:13:47.821Z,8.20
2023-02-11T12:19:26.643Z,8.10
2023-02-11T12:24:56.166Z,8.10
2023-02-11T12:30:16.378Z,8.30
2023-02-11T12:35:51.720Z,8.20
2023-02-11T12:41:00.763Z,8.20
2023-02-11T12:46:09.380Z,8.20
2023-02-11T12:51:17.526Z,8.10
2023-02-11T12:56:35.708Z,8.10
2023-02-11T13:01:40.820Z,8.10
2023-02-11T13:06:46.904Z,8.20
2023-02-11T13:11:53.962Z,8.20
2023-02-11T13:16:58.440Z,8.10
2023-02-11T13:22:13.750Z,8.10
2023-02-11T13:27:58.955Z,8.00
2023-02-11T13:33:01.036Z,8.10
2023-02-11T13:38:06.555Z,8.00
2023-02-11T13:43:21.872Z,8.00
2023-02-11T13:48:32.891Z,8.00
2023-02-11T13:53:57.304Z,8.00
2023-02-11T13:59:02.376Z,8.00
2023-02-11T14:04:43.648Z,8.00
2023-02-11T14:09:45.526Z,8.10
2023-02-11T14:15:07.769Z,8.10
2023-02-11T14:20:37.977Z,8.00
2023-02-11T14:25:42.767Z,8.10
2023-02-11T14:31:17.094Z,8.10
2023-02-11T14:36:44.040Z,8.10
2023-02-11T14:41:48.795Z,8.10
2023-02-11T14:46:54.193Z,8.00
2023-02-11T14:52:02.739Z,8.00
2023-02-11T14:57:13.278Z,8.00
2023-02-11T15:02:24.735Z,8.10
2023-02-11T15:07:28.316Z,8.20
2023-02-11T15:12:30.132Z,8.30
2023-02-11T15:17:32.875Z,8.30
2023-02-11T15:22:37.434Z,8.20
2023-02-11T15:27:43.381Z,8.30
2023-02-11T15:32:45.242Z,8.20
2023-02-11T15:37:48.946Z,8.30
2023-02-11T15:42:58.785Z,8.20
2023-02-11T15:48:12.520Z,8.30
2023-02-11T15:53:28.245Z,8.30
2023-02-11T15:58:35.681Z,8.20
2023-02-11T16:03:41.239Z,8.20
2023-02-11T16:08:43.491Z,8.20
2023-02-11T16:13:46.837Z,8.20
2023-02-11T16:19:06.028Z,8.20
2023-02-11T16:24:17.398Z,8.10
2023-02-11T16:29:25.242Z,8.10
2023-02-11T16:34:28.875Z,8.00
2023-02-11T16:39:30.882Z,8.10
2023-02-11T16:44:33.400Z,8.10
2023-02-11T16:49:40.495Z,8.10
2023-02-11T16:54:42.832Z,8.10
2023-02-11T16:59:45.126Z,8.10
2023-02-11T17:04:47.249Z,8.10
2023-02-11T17:09:49.154Z,8.10
2023-02-11T17:14:51.479Z,8.10
2023-02-11T17:19:53.270Z,8.10
2023-02-11T17:24:57.092Z,8.10
2023-02-11T17:29:58.872Z,8.10
2023-02-11T17:35:00.714Z,8.10
2023-02-11T17:40:02.487Z,8.10
2023-02-11T17:45:04.899Z,8.10
2023-02-11T17:50:07.292Z,8.10
2023-02-11T17:55:08.992Z,8.00
2023-02-11T18:00:11.567Z,8.10
2023-02-11T18:05:13.319Z,7.90
2023-02-11T18:10:15.168Z,7.90
2023-02-11T18:15:17.014Z,7.80
2023-02-11T18:20:19.027Z,7.70
2023-02-11T18:25:20.851Z,7.70
2023-02-11T18:30:22.794Z,7.60
2023-02-11T18:35:24.545Z,7.60
2023-02-11T18:40:26.251Z,7.60
2023-02-11T18:45:29.053Z,7.50
2023-02-11T18:50:31.090Z,7.50
2023-02-11T18:55:33.159Z,7.40
2023-02-11T19:00:36.018Z,7.40
2023-02-11T19:05:55.932Z,7.40
2023-02-11T19:10:57.655Z,7.40
2023-02-11T19:15:59.432Z,7.40
2023-02-11T19:21:06.341Z,7.40
2023-02-11T19:26:08.017Z,7.40
2023-02-11T19:31:10.029Z,7.40
2023-02-11T19:36:16.229Z,7.40
2023-02-11T19:41:22.095Z,7.40
2023-02-11T19:46:25.225Z,7.50
2023-02-11T19:51:27.245Z,7.50
2023-02-11T19:56:29.388Z,7.50
2023-02-11T20:01:31.260Z,7.50
2023-02-11T20:06:33.751Z,7.50
2023-02-11T20:11:36.116Z,7.50
2023-02-11T20:16:47.991Z,7.50
2023-02-11T20:21:55.781Z,7.40
2023-02-11T20:26:58.200Z,7.40
2023-02-11T20:32:00.181Z,7.50
2023-02-11T20:37:04.815Z,7.50
2023-02-11T20:42:10.161Z,7.40
2023-02-11T20:47:12.357Z,7.40
2023-02-11T20:52:14.065Z,7.40
2023-02-11T20:57:15.907Z,7.40
2023-02-11T21:02:17.631Z,7.40
2023-02-11T21:07:19.539Z,7.40
2023-02-11T21:12:21.290Z,7.40
2023-02-11T21:17:23.243Z,7.40
2023-02-11T21:22:25.316Z,7.40
2023-02-11T21:27:32.287Z,7.40
2023-02-11T21:32:36.739Z,7.40
2023-02-11T21:37:38.587Z,7.50
2023-02-11T21:42:40.632Z,7.50
2023-02-11T21:47:42.352Z,7.50
2023-02-11T21:52:44.456Z,7.40
2023-02-11T21:57:46.136Z,7.40
2023-02-11T22:02:49.834Z,7.50
2023-02-11T22:07:51.705Z,7.50
2023-02-11T22:12:53.427Z,7.50
2023-02-11T22:17:55.129Z,7.50
2023-02-11T22:22:56.863Z,7.50
2023-02-11T22:27:58.621Z,7.50
2023-02-11T22:33:00.681Z,7.50
2023-02-11T22:38:02.609Z,7.50
2023-02-11T22:43:04.301Z,7.50
2023-02-11T22:48:06.179Z,7.40
2023-02-11T22:53:08.049Z,7.50
2023-02-11T22:58:10.261Z,7.60
2023-02-11T23:03:15.856Z,7.60
2023-02-11T23:08:18.347Z,7.50
2023-02-11T23:13:20.657Z,7.50
2023-02-11T23:18:22.627Z,7.60
2023-02-11T23:23:24.426Z,7.60
2023-02-11T23:28:29.503Z,7.60
2023-02-11T23:33:31.603Z,7.60
2023-02-11T23:38:33.894Z,7.70
2023-02-11T23:43:35.890Z,7.60
2023-02-11T23:48:38.038Z,7.60
2023-02-11T23:53:40.803Z,7.60
2023-02-11T23:58:44.946Z,7.70
